sensor_id;sensor_type;location;lat;lon;timestamp;P1;durP1;ratioP1;P2;durP2;ratioP2
40058;SDS011;25763;49.972;8.568;2023-12-20T00:01:03;79.07;;;75.10;;
40058;SDS011;25763;49.972;8.568;2023-12-20T00:03:28;75.03;;;71.30;;
40058;SDS011;25763;49.972;8.568;2023-12-20T00:05:54;88.93;;;84.53;;
40058;SDS011;25763;49.972;8.568;2023-12-20T00:08:20;83.93;;;79.78;;
40058;SDS011;25763;49.972;8.568;2023-12-20T00:10:46;80.93;;;76.93;;
40058;SDS011;25763;49.972;8.568;2023-12-20T00:13:11;79.80;;;75.82;;
40058;SDS011;25763;49.972;8.568;2023-12-20T00:15:36;78.15;;;74.25;;
40058;SDS011;25763;49.972;8.568;2023-12-20T00:18:02;85.70;;;81.50;;
40058;SDS011;25763;49.972;8.568;2023-12-20T00:20:28;80.70;;;76.70;;
40058;SDS011;25763;49.972;8.568;2023-12-20T00:22:55;83.75;;;79.60;;
40058;SDS011;25763;49.972;8.568;2023-12-20T00:25:25;83.38;;;79.03;;
40058;SDS011;25763;49.972;8.568;2023-12-20T00:27:50;86.45;;;82.13;;
40058;SDS011;25763;49.972;8.568;2023-12-20T00:30:16;82.15;;;78.00;;
40058;SDS011;25763;49.972;8.568;2023-12-20T00:32:42;80.80;;;76.78;;
40058;SDS011;25763;49.972;8.568;2023-12-20T00:35:15;78.97;;;74.97;;
40058;SDS011;25763;49.972;8.568;2023-12-20T00:37:41;78.95;;;75.00;;
40058;SDS011;25763;49.972;8.568;2023-12-20T00:40:07;81.65;;;77.63;;
40058;SDS011;25763;49.972;8.568;2023-12-20T00:42:33;80.78;;;76.72;;
40058;SDS011;25763;49.972;8.568;2023-12-20T00:44:59;79.43;;;75.50;;
40058;SDS011;25763;49.972;8.568;2023-12-20T00:47:25;81.40;;;77.30;;
40058;SDS011;25763;49.972;8.568;2023-12-20T00:49:50;79.60;;;75.60;;
40058;SDS011;25763;49.972;8.568;2023-12-20T00:52:15;79.60;;;75.63;;
40058;SDS011;25763;49.972;8.568;2023-12-20T00:54:42;75.80;;;72.03;;
40058;SDS011;25763;49.972;8.568;2023-12-20T00:57:08;81.78;;;77.68;;
40058;SDS011;25763;49.972;8.568;2023-12-20T00:59:34;81.57;;;77.53;;
40058;SDS011;25763;49.972;8.568;2023-12-20T01:01:59;74.15;;;70.45;;
40058;SDS011;25763;49.972;8.568;2023-12-20T01:04:24;82.93;;;78.82;;
40058;SDS011;25763;49.972;8.568;2023-12-20T01:06:50;82.28;;;78.18;;
40058;SDS011;25763;49.972;8.568;2023-12-20T01:09:15;83.00;;;78.65;;
40058;SDS011;25763;49.972;8.568;2023-12-20T01:11:40;87.28;;;82.93;;
40058;SDS011;25763;49.972;8.568;2023-12-20T01:14:06;82.75;;;78.60;;
40058;SDS011;25763;49.972;8.568;2023-12-20T01:16:31;80.82;;;76.80;;
40058;SDS011;25763;49.972;8.568;2023-12-20T01:18:56;84.18;;;80.03;;
40058;SDS011;25763;49.972;8.568;2023-12-20T01:21:21;84.15;;;79.97;;
40058;SDS011;25763;49.972;8.568;2023-12-20T01:23:47;82.20;;;78.03;;
40058;SDS011;25763;49.972;8.568;2023-12-20T01:26:12;85.75;;;81.45;;
40058;SDS011;25763;49.972;8.568;2023-12-20T01:28:38;82.05;;;77.95;;
40058;SDS011;25763;49.972;8.568;2023-12-20T01:31:03;79.40;;;75.45;;
40058;SDS011;25763;49.972;8.568;2023-12-20T01:33:29;81.93;;;77.88;;
40058;SDS011;25763;49.972;8.568;2023-12-20T01:35:54;79.55;;;75.60;;
40058;SDS011;25763;49.972;8.568;2023-12-20T01:38:19;80.05;;;76.07;;
40058;SDS011;25763;49.972;8.568;2023-12-20T01:40:45;79.68;;;75.72;;
40058;SDS011;25763;49.972;8.568;2023-12-20T01:43:10;81.38;;;77.32;;
40058;SDS011;25763;49.972;8.568;2023-12-20T01:45:39;82.00;;;77.95;;
40058;SDS011;25763;49.972;8.568;2023-12-20T01:48:04;84.35;;;80.15;;
40058;SDS011;25763;49.972;8.568;2023-12-20T01:50:31;85.97;;;81.68;;
40058;SDS011;25763;49.972;8.568;2023-12-20T01:52:57;80.00;;;76.00;;
40058;SDS011;25763;49.972;8.568;2023-12-20T01:55:25;83.53;;;79.38;;
40058;SDS011;25763;49.972;8.568;2023-12-20T01:57:51;83.63;;;79.43;;
40058;SDS011;25763;49.972;8.568;2023-12-20T02:00:16;79.18;;;74.97;;
40058;SDS011;25763;49.972;8.568;2023-12-20T02:02:43;81.93;;;77.80;;
40058;SDS011;25763;49.972;8.568;2023-12-20T02:05:09;82.25;;;78.18;;
40058;SDS011;25763;49.972;8.568;2023-12-20T02:07:35;88.38;;;83.82;;
40058;SDS011;25763;49.972;8.568;2023-12-20T02:10:01;81.95;;;77.88;;
40058;SDS011;25763;49.972;8.568;2023-12-20T02:12:27;83.07;;;78.85;;
40058;SDS011;25763;49.972;8.568;2023-12-20T02:14:52;80.65;;;76.65;;
40058;SDS011;25763;49.972;8.568;2023-12-20T02:17:19;80.20;;;76.22;;
40058;SDS011;25763;49.972;8.568;2023-12-20T02:19:45;82.57;;;78.45;;
40058;SDS011;25763;49.972;8.568;2023-12-20T02:22:10;79.10;;;75.15;;
40058;SDS011;25763;49.972;8.568;2023-12-20T02:24:36;77.57;;;73.72;;
40058;SDS011;25763;49.972;8.568;2023-12-20T02:27:02;78.25;;;74.35;;
40058;SDS011;25763;49.972;8.568;2023-12-20T02:29:30;80.63;;;76.57;;
40058;SDS011;25763;49.972;8.568;2023-12-20T02:31:55;78.55;;;74.63;;
40058;SDS011;25763;49.972;8.568;2023-12-20T02:34:21;79.28;;;75.32;;
40058;SDS011;25763;49.972;8.568;2023-12-20T02:36:46;76.72;;;72.93;;
40058;SDS011;25763;49.972;8.568;2023-12-20T02:39:11;74.93;;;71.20;;
40058;SDS011;25763;49.972;8.568;2023-12-20T02:41:38;77.97;;;74.07;;
40058;SDS011;25763;49.972;8.568;2023-12-20T02:44:03;78.10;;;74.20;;
40058;SDS011;25763;49.972;8.568;2023-12-20T02:46:29;77.72;;;73.85;;
40058;SDS011;25763;49.972;8.568;2023-12-20T02:48:54;77.82;;;73.93;;
40058;SDS011;25763;49.972;8.568;2023-12-20T02:51:19;73.78;;;70.13;;
40058;SDS011;25763;49.972;8.568;2023-12-20T02:53:45;75.30;;;71.55;;
40058;SDS011;25763;49.972;8.568;2023-12-20T02:56:10;74.72;;;70.97;;
40058;SDS011;25763;49.972;8.568;2023-12-20T02:58:35;75.07;;;71.30;;
40058;SDS011;25763;49.972;8.568;2023-12-20T03:01:01;74.25;;;70.55;;
40058;SDS011;25763;49.972;8.568;2023-12-20T03:03:26;78.72;;;74.72;;
40058;SDS011;25763;49.972;8.568;2023-12-20T03:05:51;73.25;;;69.55;;
40058;SDS011;25763;49.972;8.568;2023-12-20T03:08:17;78.05;;;74.20;;
40058;SDS011;25763;49.972;8.568;2023-12-20T03:10:42;73.50;;;69.82;;
40058;SDS011;25763;49.972;8.568;2023-12-20T03:13:07;76.30;;;72.50;;
40058;SDS011;25763;49.972;8.568;2023-12-20T03:15:33;74.43;;;70.72;;
40058;SDS011;25763;49.972;8.568;2023-12-20T03:17:58;74.10;;;70.43;;
40058;SDS011;25763;49.972;8.568;2023-12-20T03:20:24;74.95;;;71.20;;
40058;SDS011;25763;49.972;8.568;2023-12-20T03:22:51;75.25;;;71.43;;
40058;SDS011;25763;49.972;8.568;2023-12-20T03:25:16;77.60;;;73.78;;
40058;SDS011;25763;49.972;8.568;2023-12-20T03:27:42;75.82;;;72.05;;
40058;SDS011;25763;49.972;8.568;2023-12-20T03:30:07;77.00;;;73.18;;
40058;SDS011;25763;49.972;8.568;2023-12-20T03:32:33;74.57;;;70.88;;
40058;SDS011;25763;49.972;8.568;2023-12-20T03:34:58;74.43;;;70.72;;
40058;SDS011;25763;49.972;8.568;2023-12-20T03:37:24;75.82;;;72.05;;
40058;SDS011;25763;49.972;8.568;2023-12-20T03:39:49;78.00;;;74.13;;
40058;SDS011;25763;49.972;8.568;2023-12-20T03:42:14;75.15;;;71.43;;
40058;SDS011;25763;49.972;8.568;2023-12-20T03:44:40;73.97;;;70.30;;
40058;SDS011;25763;49.972;8.568;2023-12-20T03:47:05;75.70;;;71.95;;
40058;SDS011;25763;49.972;8.568;2023-12-20T03:49:31;74.70;;;70.93;;
40058;SDS011;25763;49.972;8.568;2023-12-20T03:51:57;79.45;;;75.50;;
40058;SDS011;25763;49.972;8.568;2023-12-20T03:54:22;77.95;;;74.07;;
40058;SDS011;25763;49.972;8.568;2023-12-20T03:56:47;75.68;;;71.85;;
40058;SDS011;25763;49.972;8.568;2023-12-20T03:59:13;79.68;;;75.68;;
40058;SDS011;25763;49.972;8.568;2023-12-20T04:01:42;75.97;;;72.18;;
40058;SDS011;25763;49.972;8.568;2023-12-20T04:04:09;81.03;;;77.03;;
40058;SDS011;25763;49.972;8.568;2023-12-20T04:06:35;79.43;;;75.50;;
40058;SDS011;25763;49.972;8.568;2023-12-20T04:09:01;83.15;;;78.97;;
40058;SDS011;25763;49.972;8.568;2023-12-20T04:11:26;79.40;;;75.45;;
40058;SDS011;25763;49.972;8.568;2023-12-20T04:13:52;75.88;;;72.13;;
40058;SDS011;25763;49.972;8.568;2023-12-20T04:16:17;80.65;;;76.63;;
40058;SDS011;25763;49.972;8.568;2023-12-20T04:18:42;75.72;;;71.97;;
40058;SDS011;25763;49.972;8.568;2023-12-20T04:21:07;72.78;;;69.15;;
40058;SDS011;25763;49.972;8.568;2023-12-20T04:23:33;78.68;;;74.78;;
40058;SDS011;25763;49.972;8.568;2023-12-20T04:25:58;81.80;;;77.75;;
40058;SDS011;25763;49.972;8.568;2023-12-20T04:28:23;80.13;;;76.15;;
40058;SDS011;25763;49.972;8.568;2023-12-20T04:30:49;75.95;;;72.15;;
40058;SDS011;25763;49.972;8.568;2023-12-20T04:33:14;75.00;;;71.25;;
40058;SDS011;25763;49.972;8.568;2023-12-20T04:35:40;79.57;;;75.60;;
40058;SDS011;25763;49.972;8.568;2023-12-20T04:38:07;80.22;;;76.25;;
40058;SDS011;25763;49.972;8.568;2023-12-20T04:40:33;75.93;;;72.13;;
40058;SDS011;25763;49.972;8.568;2023-12-20T04:42:58;79.20;;;75.28;;
40058;SDS011;25763;49.972;8.568;2023-12-20T04:45:23;74.35;;;70.65;;
40058;SDS011;25763;49.972;8.568;2023-12-20T04:47:50;77.78;;;73.90;;
40058;SDS011;25763;49.972;8.568;2023-12-20T04:50:15;74.47;;;70.78;;
40058;SDS011;25763;49.972;8.568;2023-12-20T04:52:41;77.45;;;73.60;;
40058;SDS011;25763;49.972;8.568;2023-12-20T04:55:07;76.57;;;72.78;;
40058;SDS011;25763;49.972;8.568;2023-12-20T04:57:33;72.47;;;68.88;;
40058;SDS011;25763;49.972;8.568;2023-12-20T04:59:59;70.32;;;66.80;;
40058;SDS011;25763;49.972;8.568;2023-12-20T05:02:24;68.00;;;64.60;;
40058;SDS011;25763;49.972;8.568;2023-12-20T05:04:50;69.30;;;65.82;;
40058;SDS011;25763;49.972;8.568;2023-12-20T05:07:15;68.93;;;65.45;;
40058;SDS011;25763;49.972;8.568;2023-12-20T05:09:40;67.78;;;64.32;;
40058;SDS011;25763;49.972;8.568;2023-12-20T05:12:06;64.32;;;61.00;;
40058;SDS011;25763;49.972;8.568;2023-12-20T05:14:32;63.78;;;60.60;;
40058;SDS011;25763;49.972;8.568;2023-12-20T05:16:57;73.75;;;68.72;;
40058;SDS011;25763;49.972;8.568;2023-12-20T05:19:23;67.00;;;63.67;;
40058;SDS011;25763;49.972;8.568;2023-12-20T05:21:49;70.35;;;66.82;;
40058;SDS011;25763;49.972;8.568;2023-12-20T05:24:15;76.85;;;72.80;;
40058;SDS011;25763;49.972;8.568;2023-12-20T05:26:40;75.72;;;71.97;;
40058;SDS011;25763;49.972;8.568;2023-12-20T05:29:05;76.70;;;72.88;;
40058;SDS011;25763;49.972;8.568;2023-12-20T05:31:31;73.53;;;69.85;;
40058;SDS011;25763;49.972;8.568;2023-12-20T05:33:56;75.05;;;71.30;;
40058;SDS011;25763;49.972;8.568;2023-12-20T05:36:22;69.30;;;65.82;;
40058;SDS011;25763;49.972;8.568;2023-12-20T05:38:47;68.40;;;64.90;;
40058;SDS011;25763;49.972;8.568;2023-12-20T05:41:13;66.35;;;63.03;;
40058;SDS011;25763;49.972;8.568;2023-12-20T05:43:38;63.03;;;59.88;;
40058;SDS011;25763;49.972;8.568;2023-12-20T05:46:04;64.90;;;61.65;;
40058;SDS011;25763;49.972;8.568;2023-12-20T05:48:29;61.13;;;58.05;;
40058;SDS011;25763;49.972;8.568;2023-12-20T05:50:55;62.75;;;59.58;;
40058;SDS011;25763;49.972;8.568;2023-12-20T05:53:20;58.95;;;56.00;;
40058;SDS011;25763;49.972;8.568;2023-12-20T05:55:45;61.65;;;58.55;;
40058;SDS011;25763;49.972;8.568;2023-12-20T05:58:11;61.50;;;58.42;;
40058;SDS011;25763;49.972;8.568;2023-12-20T06:00:36;58.40;;;55.45;;
40058;SDS011;25763;49.972;8.568;2023-12-20T06:03:01;61.38;;;57.58;;
40058;SDS011;25763;49.972;8.568;2023-12-20T06:05:27;55.50;;;52.72;;
40058;SDS011;25763;49.972;8.568;2023-12-20T06:07:52;54.00;;;51.30;;
40058;SDS011;25763;49.972;8.568;2023-12-20T06:10:18;53.00;;;50.33;;
40058;SDS011;25763;49.972;8.568;2023-12-20T06:12:43;52.15;;;49.53;;
40058;SDS011;25763;49.972;8.568;2023-12-20T06:15:08;52.42;;;49.72;;
40058;SDS011;25763;49.972;8.568;2023-12-20T06:17:34;50.75;;;48.17;;
40058;SDS011;25763;49.972;8.568;2023-12-20T06:20:00;49.92;;;47.38;;
40058;SDS011;25763;49.972;8.568;2023-12-20T06:22:26;49.15;;;46.45;;
40058;SDS011;25763;49.972;8.568;2023-12-20T06:24:51;47.08;;;44.67;;
40058;SDS011;25763;49.972;8.568;2023-12-20T06:27:16;48.00;;;45.53;;
40058;SDS011;25763;49.972;8.568;2023-12-20T06:29:42;50.10;;;47.45;;
40058;SDS011;25763;49.972;8.568;2023-12-20T06:32:09;51.33;;;48.75;;
40058;SDS011;25763;49.972;8.568;2023-12-20T06:34:35;51.58;;;48.85;;
40058;SDS011;25763;49.972;8.568;2023-12-20T06:37:00;47.72;;;45.30;;
40058;SDS011;25763;49.972;8.568;2023-12-20T06:39:25;46.83;;;44.42;;
40058;SDS011;25763;49.972;8.568;2023-12-20T06:41:51;47.88;;;45.40;;
40058;SDS011;25763;49.972;8.568;2023-12-20T06:44:16;44.90;;;42.60;;
40058;SDS011;25763;49.972;8.568;2023-12-20T06:46:42;45.20;;;42.85;;
40058;SDS011;25763;49.972;8.568;2023-12-20T06:49:08;47.83;;;45.38;;
40058;SDS011;25763;49.972;8.568;2023-12-20T06:51:33;49.55;;;47.03;;
40058;SDS011;25763;49.972;8.568;2023-12-20T06:53:58;49.50;;;47.00;;
40058;SDS011;25763;49.972;8.568;2023-12-20T06:56:25;52.35;;;49.67;;
40058;SDS011;25763;49.972;8.568;2023-12-20T06:58:50;50.05;;;47.50;;
40058;SDS011;25763;49.972;8.568;2023-12-20T07:01:15;48.33;;;45.88;;
40058;SDS011;25763;49.972;8.568;2023-12-20T07:03:41;59.60;;;55.60;;
40058;SDS011;25763;49.972;8.568;2023-12-20T07:06:07;70.65;;;65.32;;
40058;SDS011;25763;49.972;8.568;2023-12-20T07:08:33;57.00;;;53.75;;
40058;SDS011;25763;49.972;8.568;2023-12-20T07:10:58;57.67;;;54.65;;
40058;SDS011;25763;49.972;8.568;2023-12-20T07:13:23;56.63;;;53.58;;
40058;SDS011;25763;49.972;8.568;2023-12-20T07:15:49;59.15;;;55.97;;
40058;SDS011;25763;49.972;8.568;2023-12-20T07:18:15;57.97;;;54.92;;
40058;SDS011;25763;49.972;8.568;2023-12-20T07:20:40;55.03;;;52.22;;
40058;SDS011;25763;49.972;8.568;2023-12-20T07:23:06;57.38;;;54.22;;
40058;SDS011;25763;49.972;8.568;2023-12-20T07:25:31;57.33;;;54.45;;
40058;SDS011;25763;49.972;8.568;2023-12-20T07:27:57;61.35;;;58.15;;
40058;SDS011;25763;49.972;8.568;2023-12-20T07:30:23;57.97;;;55.05;;
40058;SDS011;25763;49.972;8.568;2023-12-20T07:32:48;57.72;;;54.80;;
40058;SDS011;25763;49.972;8.568;2023-12-20T07:35:15;55.80;;;52.95;;
40058;SDS011;25763;49.972;8.568;2023-12-20T07:37:40;56.25;;;53.40;;
40058;SDS011;25763;49.972;8.568;2023-12-20T07:40:06;55.70;;;52.78;;
40058;SDS011;25763;49.972;8.568;2023-12-20T07:42:32;55.45;;;52.63;;
40058;SDS011;25763;49.972;8.568;2023-12-20T07:44:58;54.55;;;51.78;;
40058;SDS011;25763;49.972;8.568;2023-12-20T07:47:23;52.15;;;49.53;;
40058;SDS011;25763;49.972;8.568;2023-12-20T07:49:50;53.10;;;50.42;;
40058;SDS011;25763;49.972;8.568;2023-12-20T07:52:17;50.33;;;47.80;;
40058;SDS011;25763;49.972;8.568;2023-12-20T07:54:43;50.47;;;47.70;;
40058;SDS011;25763;49.972;8.568;2023-12-20T07:57:09;49.83;;;47.33;;
40058;SDS011;25763;49.972;8.568;2023-12-20T07:59:35;49.63;;;47.10;;
40058;SDS011;25763;49.972;8.568;2023-12-20T08:02:01;47.53;;;45.13;;
40058;SDS011;25763;49.972;8.568;2023-12-20T08:04:26;50.63;;;47.92;;
40058;SDS011;25763;49.972;8.568;2023-12-20T08:06:52;46.90;;;44.50;;
40058;SDS011;25763;49.972;8.568;2023-12-20T08:09:17;49.60;;;45.53;;
40058;SDS011;25763;49.972;8.568;2023-12-20T08:11:46;47.22;;;44.85;;
40058;SDS011;25763;49.972;8.568;2023-12-20T08:14:12;47.30;;;44.78;;
40058;SDS011;25763;49.972;8.568;2023-12-20T08:16:37;47.70;;;45.28;;
40058;SDS011;25763;49.972;8.568;2023-12-20T08:19:03;48.08;;;45.30;;
40058;SDS011;25763;49.972;8.568;2023-12-20T08:21:28;48.70;;;46.08;;
40058;SDS011;25763;49.972;8.568;2023-12-20T08:23:53;45.95;;;43.65;;
40058;SDS011;25763;49.972;8.568;2023-12-20T08:26:19;45.58;;;43.25;;
40058;SDS011;25763;49.972;8.568;2023-12-20T08:28:46;44.58;;;42.30;;
40058;SDS011;25763;49.972;8.568;2023-12-20T08:31:14;44.65;;;41.67;;
40058;SDS011;25763;49.972;8.568;2023-12-20T08:33:41;42.08;;;39.92;;
40058;SDS011;25763;49.972;8.568;2023-12-20T08:36:06;42.55;;;40.35;;
40058;SDS011;25763;49.972;8.568;2023-12-20T08:38:32;41.80;;;39.67;;
40058;SDS011;25763;49.972;8.568;2023-12-20T08:40:57;42.08;;;39.90;;
40058;SDS011;25763;49.972;8.568;2023-12-20T08:43:22;41.55;;;39.40;;
40058;SDS011;25763;49.972;8.568;2023-12-20T08:45:48;43.85;;;41.35;;
40058;SDS011;25763;49.972;8.568;2023-12-20T08:48:13;45.90;;;43.47;;
40058;SDS011;25763;49.972;8.568;2023-12-20T08:50:38;47.33;;;44.83;;
40058;SDS011;25763;49.972;8.568;2023-12-20T08:53:04;47.35;;;44.95;;
40058;SDS011;25763;49.972;8.568;2023-12-20T08:55:29;44.70;;;42.40;;
40058;SDS011;25763;49.972;8.568;2023-12-20T08:57:56;42.25;;;40.10;;
40058;SDS011;25763;49.972;8.568;2023-12-20T09:00:21;44.63;;;42.33;;
40058;SDS011;25763;49.972;8.568;2023-12-20T09:02:49;42.13;;;40.00;;
40058;SDS011;25763;49.972;8.568;2023-12-20T09:05:14;41.85;;;39.65;;
40058;SDS011;25763;49.972;8.568;2023-12-20T09:07:40;42.92;;;40.67;;
40058;SDS011;25763;49.972;8.568;2023-12-20T09:10:05;41.40;;;39.05;;
40058;SDS011;25763;49.972;8.568;2023-12-20T09:12:31;45.30;;;42.90;;
40058;SDS011;25763;49.972;8.568;2023-12-20T09:14:56;43.17;;;40.75;;
40058;SDS011;25763;49.972;8.568;2023-12-20T09:17:22;45.92;;;43.47;;
40058;SDS011;25763;49.972;8.568;2023-12-20T09:19:48;45.58;;;43.28;;
40058;SDS011;25763;49.972;8.568;2023-12-20T09:22:14;46.45;;;43.80;;
40058;SDS011;25763;49.972;8.568;2023-12-20T09:24:39;44.92;;;42.63;;
40058;SDS011;25763;49.972;8.568;2023-12-20T09:27:05;44.35;;;42.13;;
40058;SDS011;25763;49.972;8.568;2023-12-20T09:29:31;47.38;;;44.95;;
40058;SDS011;25763;49.972;8.568;2023-12-20T09:31:56;45.03;;;42.72;;
40058;SDS011;25763;49.972;8.568;2023-12-20T09:34:22;45.92;;;43.55;;
40058;SDS011;25763;49.972;8.568;2023-12-20T09:36:48;47.35;;;44.95;;
40058;SDS011;25763;49.972;8.568;2023-12-20T09:39:13;43.67;;;41.47;;
40058;SDS011;25763;49.972;8.568;2023-12-20T09:41:43;43.50;;;41.30;;
40058;SDS011;25763;49.972;8.568;2023-12-20T09:46:39;43.63;;;41.35;;
40058;SDS011;25763;49.972;8.568;2023-12-20T09:49:08;42.60;;;40.42;;
40058;SDS011;25763;49.972;8.568;2023-12-20T09:51:35;39.92;;;37.83;;
40058;SDS011;25763;49.972;8.568;2023-12-20T09:54:02;40.13;;;38.03;;
40058;SDS011;25763;49.972;8.568;2023-12-20T09:56:28;39.58;;;37.53;;
40058;SDS011;25763;49.972;8.568;2023-12-20T09:58:54;39.55;;;37.45;;
40058;SDS011;25763;49.972;8.568;2023-12-20T10:01:20;38.30;;;36.33;;
40058;SDS011;25763;49.972;8.568;2023-12-20T10:03:46;41.65;;;39.53;;
40058;SDS011;25763;49.972;8.568;2023-12-20T10:06:11;38.83;;;36.83;;
40058;SDS011;25763;49.972;8.568;2023-12-20T10:08:37;41.33;;;39.22;;
40058;SDS011;25763;49.972;8.568;2023-12-20T10:11:04;39.55;;;37.55;;
40058;SDS011;25763;49.972;8.568;2023-12-20T10:13:30;40.25;;;38.13;;
40058;SDS011;25763;49.972;8.568;2023-12-20T10:15:55;42.20;;;40.05;;
40058;SDS011;25763;49.972;8.568;2023-12-20T10:18:22;40.78;;;38.60;;
40058;SDS011;25763;49.972;8.568;2023-12-20T10:20:48;40.03;;;37.92;;
40058;SDS011;25763;49.972;8.568;2023-12-20T10:23:13;42.90;;;40.70;;
40058;SDS011;25763;49.972;8.568;2023-12-20T10:25:40;44.30;;;42.00;;
40058;SDS011;25763;49.972;8.568;2023-12-20T10:28:14;40.42;;;38.33;;
40058;SDS011;25763;49.972;8.568;2023-12-20T10:30:44;39.63;;;37.17;;
40058;SDS011;25763;49.972;8.568;2023-12-20T10:33:09;39.05;;;37.05;;
40058;SDS011;25763;49.972;8.568;2023-12-20T10:35:35;38.03;;;35.95;;
40058;SDS011;25763;49.972;8.568;2023-12-20T10:38:03;39.53;;;36.97;;
40058;SDS011;25763;49.972;8.568;2023-12-20T10:40:30;37.50;;;35.60;;
40058;SDS011;25763;49.972;8.568;2023-12-20T10:42:56;40.28;;;38.17;;
40058;SDS011;25763;49.972;8.568;2023-12-20T10:45:23;38.03;;;35.78;;
40058;SDS011;25763;49.972;8.568;2023-12-20T10:47:49;36.88;;;34.63;;
40058;SDS011;25763;49.972;8.568;2023-12-20T10:50:15;37.55;;;35.60;;
40058;SDS011;25763;49.972;8.568;2023-12-20T10:52:41;37.63;;;35.63;;
40058;SDS011;25763;49.972;8.568;2023-12-20T10:55:07;36.67;;;34.65;;
40058;SDS011;25763;49.972;8.568;2023-12-20T10:57:33;34.45;;;32.63;;
40058;SDS011;25763;49.972;8.568;2023-12-20T11:00:01;34.17;;;32.38;;
40058;SDS011;25763;49.972;8.568;2023-12-20T11:02:32;30.15;;;28.48;;
40058;SDS011;25763;49.972;8.568;2023-12-20T11:05:15;30.63;;;28.63;;
40058;SDS011;25763;49.972;8.568;2023-12-20T11:07:48;28.20;;;26.70;;
40058;SDS011;25763;49.972;8.568;2023-12-20T11:10:21;27.25;;;25.83;;
40058;SDS011;25763;49.972;8.568;2023-12-20T11:12:54;28.63;;;27.13;;
40058;SDS011;25763;49.972;8.568;2023-12-20T11:15:37;28.27;;;26.77;;
40058;SDS011;25763;49.972;8.568;2023-12-20T11:18:03;27.80;;;26.20;;
40058;SDS011;25763;49.972;8.568;2023-12-20T11:20:36;31.48;;;29.65;;
40058;SDS011;25763;49.972;8.568;2023-12-20T11:23:03;29.10;;;27.40;;
40058;SDS011;25763;49.972;8.568;2023-12-20T11:25:28;25.52;;;24.23;;
40058;SDS011;25763;49.972;8.568;2023-12-20T11:28:15;25.95;;;24.55;;
40058;SDS011;25763;49.972;8.568;2023-12-20T11:30:40;25.23;;;23.92;;
40058;SDS011;25763;49.972;8.568;2023-12-20T11:33:16;26.15;;;24.75;;
40058;SDS011;25763;49.972;8.568;2023-12-20T11:35:42;23.88;;;22.58;;
40058;SDS011;25763;49.972;8.568;2023-12-20T11:38:08;25.80;;;24.42;;
40058;SDS011;25763;49.972;8.568;2023-12-20T11:40:35;27.23;;;25.83;;
40058;SDS011;25763;49.972;8.568;2023-12-20T11:43:00;24.75;;;23.42;;
40058;SDS011;25763;49.972;8.568;2023-12-20T11:45:26;26.33;;;24.92;;
40058;SDS011;25763;49.972;8.568;2023-12-20T11:47:52;26.58;;;25.17;;
40058;SDS011;25763;49.972;8.568;2023-12-20T11:50:21;25.92;;;24.52;;
40058;SDS011;25763;49.972;8.568;2023-12-20T11:52:48;25.80;;;24.40;;
40058;SDS011;25763;49.972;8.568;2023-12-20T11:55:13;25.50;;;24.13;;
40058;SDS011;25763;49.972;8.568;2023-12-20T11:57:39;27.95;;;26.13;;
40058;SDS011;25763;49.972;8.568;2023-12-20T12:00:05;26.70;;;25.30;;
40058;SDS011;25763;49.972;8.568;2023-12-20T12:02:31;24.98;;;23.67;;
40058;SDS011;25763;49.972;8.568;2023-12-20T12:04:57;24.60;;;23.30;;
40058;SDS011;25763;49.972;8.568;2023-12-20T12:07:23;25.73;;;24.33;;
40058;SDS011;25763;49.972;8.568;2023-12-20T12:09:49;25.83;;;24.35;;
40058;SDS011;25763;49.972;8.568;2023-12-20T12:12:15;24.83;;;23.52;;
40058;SDS011;25763;49.972;8.568;2023-12-20T12:14:40;27.67;;;26.23;;
40058;SDS011;25763;49.972;8.568;2023-12-20T12:17:12;26.00;;;24.60;;
40058;SDS011;25763;49.972;8.568;2023-12-20T12:19:41;24.95;;;23.42;;
40058;SDS011;25763;49.972;8.568;2023-12-20T12:22:08;26.38;;;24.77;;
40058;SDS011;25763;49.972;8.568;2023-12-20T12:24:45;26.25;;;23.58;;
40058;SDS011;25763;49.972;8.568;2023-12-20T12:27:12;24.67;;;23.38;;
40058;SDS011;25763;49.972;8.568;2023-12-20T12:29:41;24.70;;;23.40;;
40058;SDS011;25763;49.972;8.568;2023-12-20T12:32:24;26.40;;;24.92;;
40058;SDS011;25763;49.972;8.568;2023-12-20T12:34:50;25.38;;;23.98;;
40058;SDS011;25763;49.972;8.568;2023-12-20T12:37:15;24.88;;;23.58;;
40058;SDS011;25763;49.972;8.568;2023-12-20T12:39:41;27.05;;;25.45;;
40058;SDS011;25763;49.972;8.568;2023-12-20T12:42:06;28.50;;;26.67;;
40058;SDS011;25763;49.972;8.568;2023-12-20T12:44:31;25.80;;;24.40;;
40058;SDS011;25763;49.972;8.568;2023-12-20T12:46:57;26.77;;;25.15;;
40058;SDS011;25763;49.972;8.568;2023-12-20T12:49:22;23.90;;;22.60;;
40058;SDS011;25763;49.972;8.568;2023-12-20T12:51:48;26.13;;;24.73;;
40058;SDS011;25763;49.972;8.568;2023-12-20T12:54:13;25.75;;;24.35;;
40058;SDS011;25763;49.972;8.568;2023-12-20T12:56:40;25.70;;;24.23;;
40058;SDS011;25763;49.972;8.568;2023-12-20T12:59:06;25.48;;;24.13;;
40058;SDS011;25763;49.972;8.568;2023-12-20T13:01:31;24.92;;;23.63;;
40058;SDS011;25763;49.972;8.568;2023-12-20T13:03:57;26.20;;;24.55;;
40058;SDS011;25763;49.972;8.568;2023-12-20T13:06:22;25.60;;;24.20;;
40058;SDS011;25763;49.972;8.568;2023-12-20T13:08:48;26.25;;;24.50;;
40058;SDS011;25763;49.972;8.568;2023-12-20T13:11:13;25.70;;;24.25;;
40058;SDS011;25763;49.972;8.568;2023-12-20T13:13:39;25.92;;;24.42;;
40058;SDS011;25763;49.972;8.568;2023-12-20T13:16:04;24.92;;;23.52;;
40058;SDS011;25763;49.972;8.568;2023-12-20T13:18:30;24.83;;;23.52;;
40058;SDS011;25763;49.972;8.568;2023-12-20T13:20:55;26.05;;;24.65;;
40058;SDS011;25763;49.972;8.568;2023-12-20T13:23:20;25.50;;;24.17;;
40058;SDS011;25763;49.972;8.568;2023-12-20T13:25:46;25.45;;;23.95;;
40058;SDS011;25763;49.972;8.568;2023-12-20T13:28:11;24.95;;;23.65;;
40058;SDS011;25763;49.972;8.568;2023-12-20T13:30:37;26.50;;;24.75;;
40058;SDS011;25763;49.972;8.568;2023-12-20T13:33:03;24.52;;;23.13;;
40058;SDS011;25763;49.972;8.568;2023-12-20T13:35:30;25.88;;;24.48;;
40058;SDS011;25763;49.972;8.568;2023-12-20T13:37:55;25.35;;;23.88;;
40058;SDS011;25763;49.972;8.568;2023-12-20T13:40:21;22.92;;;21.73;;
40058;SDS011;25763;49.972;8.568;2023-12-20T13:42:46;24.10;;;22.80;;
40058;SDS011;25763;49.972;8.568;2023-12-20T13:45:13;22.80;;;21.60;;
40058;SDS011;25763;49.972;8.568;2023-12-20T13:47:38;25.00;;;23.70;;
40058;SDS011;25763;49.972;8.568;2023-12-20T13:50:04;23.63;;;22.27;;
40058;SDS011;25763;49.972;8.568;2023-12-20T13:52:30;24.40;;;23.10;;
40058;SDS011;25763;49.972;8.568;2023-12-20T13:54:55;24.23;;;22.73;;
40058;SDS011;25763;49.972;8.568;2023-12-20T13:57:21;22.75;;;21.52;;
40058;SDS011;25763;49.972;8.568;2023-12-20T13:59:46;24.25;;;22.95;;
40058;SDS011;25763;49.972;8.568;2023-12-20T14:02:11;24.05;;;22.75;;
40058;SDS011;25763;49.972;8.568;2023-12-20T14:04:37;23.75;;;22.45;;
40058;SDS011;25763;49.972;8.568;2023-12-20T14:07:04;23.10;;;21.90;;
40058;SDS011;25763;49.972;8.568;2023-12-20T14:09:29;21.70;;;20.50;;
40058;SDS011;25763;49.972;8.568;2023-12-20T14:11:55;23.75;;;22.48;;
40058;SDS011;25763;49.972;8.568;2023-12-20T14:14:20;22.50;;;21.30;;
40058;SDS011;25763;49.972;8.568;2023-12-20T14:16:45;23.88;;;22.58;;